sensor_id;sensor_type;location;lat;lon;timestamp;P1;durP1;ratioP1;P2;durP2;ratioP2
64018;SDS011;66942;52.138;5.216;2024-03-25T00:00:28;23.7;;;5.2;;
64018;SDS011;66942;52.138;5.216;2024-03-25T00:03:41;15.2;;;4.5;;
64018;SDS011;66942;52.138;5.216;2024-03-25T00:05:17;16.9;;;5.3;;
64018;SDS011;66942;52.138;5.216;2024-03-25T00:06:54;27.6;;;6.3;;
64018;SDS011;66942;52.138;5.216;2024-03-25T00:10:07;26.9;;;5.8;;
64018;SDS011;66942;52.138;5.216;2024-03-25T00:11:44;23.5;;;5.6;;
64018;SDS011;66942;52.138;5.216;2024-03-25T00:13:21;27.5;;;5.6;;
64018;SDS011;66942;52.138;5.216;2024-03-25T00:14:57;23.1;;;5.3;;
64018;SDS011;66942;52.138;5.216;2024-03-25T00:18:11;16.2;;;4.61;;
64018;SDS011;66942;52.138;5.216;2024-03-25T00:19:48;29.6;;;5.3;;
64018;SDS011;66942;52.138;5.216;2024-03-25T00:21:25;17.41;;;5.2;;
64018;SDS011;66942;52.138;5.216;2024-03-25T00:24:39;22.3;;;5.7;;
64018;SDS011;66942;52.138;5.216;2024-03-25T00:26:16;22.1;;;4.1;;
64018;SDS011;66942;52.138;5.216;2024-03-25T00:27:52;19.0;;;4.91;;
64018;SDS011;66942;52.138;5.216;2024-03-25T00:31:04;20.3;;;4.7;;
64018;SDS011;66942;52.138;5.216;2024-03-25T00:32:40;19.91;;;4.91;;
64018;SDS011;66942;52.138;5.216;2024-03-25T00:34:16;20.41;;;5.4;;
64018;SDS011;66942;52.138;5.216;2024-03-25T00:35:52;15.2;;;4.91;;
64018;SDS011;66942;52.138;5.216;2024-03-25T00:39:06;20.3;;;5.11;;
64018;SDS011;66942;52.138;5.216;2024-03-25T00:40:42;19.7;;;4.7;;
64018;SDS011;66942;52.138;5.216;2024-03-25T00:42:19;31.0;;;5.6;;
64018;SDS011;66942;52.138;5.216;2024-03-25T00:45:31;28.8;;;6.1;;
64018;SDS011;66942;52.138;5.216;2024-03-25T00:47:07;20.6;;;5.3;;
64018;SDS011;66942;52.138;5.216;2024-03-25T00:48:44;22.4;;;5.3;;
64018;SDS011;66942;52.138;5.216;2024-03-25T00:51:57;25.8;;;5.8;;
64018;SDS011;66942;52.138;5.216;2024-03-25T00:53:33;23.5;;;5.6;;
64018;SDS011;66942;52.138;5.216;2024-03-25T00:55:09;26.6;;;5.7;;
64018;SDS011;66942;52.138;5.216;2024-03-25T00:56:45;26.0;;;5.5;;
64018;SDS011;66942;52.138;5.216;2024-03-25T00:59:57;26.4;;;5.7;;
64018;SDS011;66942;52.138;5.216;2024-03-25T01:01:34;18.91;;;5.0;;
64018;SDS011;66942;52.138;5.216;2024-03-25T01:03:14;23.2;;;5.0;;
64018;SDS011;66942;52.138;5.216;2024-03-25T01:06:27;13.1;;;4.0;;
64018;SDS011;66942;52.138;5.216;2024-03-25T01:08:03;25.7;;;5.4;;
64018;SDS011;66942;52.138;5.216;2024-03-25T01:09:40;23.2;;;5.2;;
64018;SDS011;66942;52.138;5.216;2024-03-25T01:12:53;23.9;;;5.6;;
64018;SDS011;66942;52.138;5.216;2024-03-25T01:14:29;20.5;;;5.3;;
64018;SDS011;66942;52.138;5.216;2024-03-25T01:16:05;22.1;;;4.7;;
64018;SDS011;66942;52.138;5.216;2024-03-25T01:17:42;27.9;;;5.6;;
64018;SDS011;66942;52.138;5.216;2024-03-25T01:20:55;17.61;;;5.3;;
64018;SDS011;66942;52.138;5.216;2024-03-25T01:22:31;23.1;;;5.5;;
64018;SDS011;66942;52.138;5.216;2024-03-25T01:24:08;24.8;;;4.91;;
64018;SDS011;66942;52.138;5.216;2024-03-25T01:27:20;17.91;;;4.2;;
64018;SDS011;66942;52.138;5.216;2024-03-25T01:28:56;22.4;;;5.2;;
64018;SDS011;66942;52.138;5.216;2024-03-25T01:30:32;22.4;;;5.0;;
64018;SDS011;66942;52.138;5.216;2024-03-25T01:33:44;17.2;;;4.7;;
64018;SDS011;66942;52.138;5.216;2024-03-25T01:35:20;27.7;;;5.7;;
64018;SDS011;66942;52.138;5.216;2024-03-25T01:36:58;26.2;;;5.4;;
64018;SDS011;66942;52.138;5.216;2024-03-25T01:38:34;24.2;;;5.11;;
64018;SDS011;66942;52.138;5.216;2024-03-25T01:41:47;15.6;;;4.5;;
64018;SDS011;66942;52.138;5.216;2024-03-25T01:43:24;15.2;;;4.2;;
64018;SDS011;66942;52.138;5.216;2024-03-25T01:45:00;23.7;;;5.8;;
64018;SDS011;66942;52.138;5.216;2024-03-25T01:48:13;20.11;;;5.8;;
64018;SDS011;66942;52.138;5.216;2024-03-25T01:49:49;19.3;;;6.1;;
64018;SDS011;66942;52.138;5.216;2024-03-25T01:51:27;19.2;;;5.3;;
64018;SDS011;66942;52.138;5.216;2024-03-25T01:54:41;18.11;;;5.5;;
64018;SDS011;66942;52.138;5.216;2024-03-25T01:56:17;29.5;;;5.9;;
64018;SDS011;66942;52.138;5.216;2024-03-25T01:57:55;16.3;;;5.3;;
64018;SDS011;66942;52.138;5.216;2024-03-25T01:59:32;22.6;;;6.5;;
64018;SDS011;66942;52.138;5.216;2024-03-25T02:02:48;17.2;;;6.1;;
64018;SDS011;66942;52.138;5.216;2024-03-25T02:04:27;17.5;;;5.8;;
64018;SDS011;66942;52.138;5.216;2024-03-25T02:06:06;27.3;;;6.4;;
64018;SDS011;66942;52.138;5.216;2024-03-25T02:09:22;25.3;;;5.6;;
64018;SDS011;66942;52.138;5.216;2024-03-25T02:10:59;18.11;;;5.2;;
64018;SDS011;66942;52.138;5.216;2024-03-25T02:12:35;18.11;;;5.2;;
64018;SDS011;66942;52.138;5.216;2024-03-25T02:14:12;20.5;;;5.5;;
64018;SDS011;66942;52.138;5.216;2024-03-25T02:17:25;22.7;;;5.7;;
64018;SDS011;66942;52.138;5.216;2024-03-25T02:19:02;20.2;;;5.7;;
64018;SDS011;66942;52.138;5.216;2024-03-25T02:20:38;22.4;;;5.4;;
64018;SDS011;66942;52.138;5.216;2024-03-25T02:23:52;15.6;;;4.7;;
64018;SDS011;66942;52.138;5.216;2024-03-25T02:25:32;23.9;;;6.1;;
64018;SDS011;66942;52.138;5.216;2024-03-25T02:27:09;18.2;;;5.2;;
64018;SDS011;66942;52.138;5.216;2024-03-25T02:28:46;13.0;;;4.2;;
64018;SDS011;66942;52.138;5.216;2024-03-25T02:31:58;14.0;;;4.91;;
64018;SDS011;66942;52.138;5.216;2024-03-25T02:33:34;20.8;;;5.2;;
64018;SDS011;66942;52.138;5.216;2024-03-25T02:35:12;24.3;;;5.6;;
64018;SDS011;66942;52.138;5.216;2024-03-25T02:38:30;20.0;;;5.6;;
64018;SDS011;66942;52.138;5.216;2024-03-25T02:40:06;20.3;;;5.7;;
64018;SDS011;66942;52.138;5.216;2024-03-25T02:41:45;21.9;;;6.3;;
64018;SDS011;66942;52.138;5.216;2024-03-25T02:45:01;18.3;;;6.0;;
64018;SDS011;66942;52.138;5.216;2024-03-25T02:46:39;21.1;;;5.5;;
64018;SDS011;66942;52.138;5.216;2024-03-25T02:48:16;14.0;;;4.61;;
64018;SDS011;66942;52.138;5.216;2024-03-25T02:49:52;24.4;;;5.7;;
64018;SDS011;66942;52.138;5.216;2024-03-25T02:53:05;21.7;;;6.2;;
64018;SDS011;66942;52.138;5.216;2024-03-25T02:54:41;27.6;;;6.5;;
64018;SDS011;66942;52.138;5.216;2024-03-25T02:56:17;20.2;;;6.1;;
64018;SDS011;66942;52.138;5.216;2024-03-25T02:59:29;23.2;;;6.5;;
64018;SDS011;66942;52.138;5.216;2024-03-25T03:01:06;20.0;;;5.9;;
64018;SDS011;66942;52.138;5.216;2024-03-25T03:02:42;17.61;;;5.2;;
64018;SDS011;66942;52.138;5.216;2024-03-25T03:04:18;21.1;;;5.7;;
64018;SDS011;66942;52.138;5.216;2024-03-25T03:07:31;32.21;;;7.4;;
64018;SDS011;66942;52.138;5.216;2024-03-25T03:09:07;27.3;;;6.9;;
64018;SDS011;66942;52.138;5.216;2024-03-25T03:10:43;20.7;;;6.7;;
64018;SDS011;66942;52.138;5.216;2024-03-25T03:13:56;30.0;;;7.1;;
64018;SDS011;66942;52.138;5.216;2024-03-25T03:15:33;23.9;;;6.4;;
64018;SDS011;66942;52.138;5.216;2024-03-25T03:17:09;29.3;;;7.1;;
64018;SDS011;66942;52.138;5.216;2024-03-25T03:20:21;22.0;;;6.3;;
64018;SDS011;66942;52.138;5.216;2024-03-25T03:21:57;26.3;;;7.2;;
64018;SDS011;66942;52.138;5.216;2024-03-25T03:23:34;22.3;;;6.5;;
64018;SDS011;66942;52.138;5.216;2024-03-25T03:26:46;23.3;;;6.0;;
64018;SDS011;66942;52.138;5.216;2024-03-25T03:28:22;28.1;;;7.0;;
64018;SDS011;66942;52.138;5.216;2024-03-25T03:29:58;25.9;;;7.3;;
64018;SDS011;66942;52.138;5.216;2024-03-25T03:31:34;29.8;;;7.8;;
64018;SDS011;66942;52.138;5.216;2024-03-25T03:34:48;14.4;;;6.0;;
64018;SDS011;66942;52.138;5.216;2024-03-25T03:36:24;27.6;;;7.1;;
64018;SDS011;66942;52.138;5.216;2024-03-25T03:38:00;29.8;;;7.8;;
64018;SDS011;66942;52.138;5.216;2024-03-25T03:41:15;22.2;;;6.3;;
64018;SDS011;66942;52.138;5.216;2024-03-25T03:42:52;27.9;;;7.4;;
64018;SDS011;66942;52.138;5.216;2024-03-25T03:44:28;26.2;;;6.8;;
64018;SDS011;66942;52.138;5.216;2024-03-25T03:47:40;26.3;;;8.1;;
64018;SDS011;66942;52.138;5.216;2024-03-25T03:49:16;28.9;;;7.5;;
64018;SDS011;66942;52.138;5.216;2024-03-25T03:50:52;27.1;;;8.0;;
64018;SDS011;66942;52.138;5.216;2024-03-25T03:52:29;18.91;;;6.5;;
64018;SDS011;66942;52.138;5.216;2024-03-25T03:55:42;22.1;;;7.4;;
64018;SDS011;66942;52.138;5.216;2024-03-25T03:57:28;26.5;;;7.6;;
64018;SDS011;66942;52.138;5.216;2024-03-25T03:59:06;27.6;;;8.2;;
64018;SDS011;66942;52.138;5.216;2024-03-25T04:02:18;25.3;;;7.4;;
64018;SDS011;66942;52.138;5.216;2024-03-25T04:03:54;28.9;;;7.9;;
64018;SDS011;66942;52.138;5.216;2024-03-25T04:05:30;23.6;;;7.3;;
64018;SDS011;66942;52.138;5.216;2024-03-25T04:07:06;18.2;;;6.5;;
64018;SDS011;66942;52.138;5.216;2024-03-25T04:10:19;19.91;;;6.8;;
64018;SDS011;66942;52.138;5.216;2024-03-25T04:11:55;28.8;;;8.0;;
64018;SDS011;66942;52.138;5.216;2024-03-25T04:13:31;22.3;;;7.6;;
64018;SDS011;66942;52.138;5.216;2024-03-25T04:16:44;25.2;;;7.8;;
64018;SDS011;66942;52.138;5.216;2024-03-25T04:18:20;22.5;;;7.4;;
64018;SDS011;66942;52.138;5.216;2024-03-25T04:19:58;19.2;;;7.5;;
64018;SDS011;66942;52.138;5.216;2024-03-25T04:23:11;24.5;;;7.8;;
64018;SDS011;66942;52.138;5.216;2024-03-25T04:24:47;26.5;;;8.5;;
64018;SDS011;66942;52.138;5.216;2024-03-25T04:26:23;23.7;;;7.4;;
64018;SDS011;66942;52.138;5.216;2024-03-25T04:28:00;21.4;;;7.8;;
64018;SDS011;66942;52.138;5.216;2024-03-25T04:31:13;27.6;;;8.4;;
64018;SDS011;66942;52.138;5.216;2024-03-25T04:32:51;24.4;;;7.7;;
64018;SDS011;66942;52.138;5.216;2024-03-25T04:34:28;27.9;;;8.31;;
64018;SDS011;66942;52.138;5.216;2024-03-25T04:37:42;23.0;;;8.4;;
64018;SDS011;66942;52.138;5.216;2024-03-25T04:39:18;25.0;;;7.5;;
64018;SDS011;66942;52.138;5.216;2024-03-25T04:40:55;23.6;;;8.5;;
64018;SDS011;66942;52.138;5.216;2024-03-25T04:44:08;21.2;;;7.5;;
64018;SDS011;66942;52.138;5.216;2024-03-25T04:45:44;25.5;;;8.9;;
64018;SDS011;66942;52.138;5.216;2024-03-25T04:47:21;25.5;;;8.9;;
64018;SDS011;66942;52.138;5.216;2024-03-25T04:48:57;23.9;;;8.31;;
64018;SDS011;66942;52.138;5.216;2024-03-25T04:52:10;35.21;;;10.1;;
64018;SDS011;66942;52.138;5.216;2024-03-25T04:53:47;23.7;;;8.0;;
64018;SDS011;66942;52.138;5.216;2024-03-25T04:55:23;27.3;;;8.71;;
64018;SDS011;66942;52.138;5.216;2024-03-25T04:58:36;26.3;;;8.2;;
64018;SDS011;66942;52.138;5.216;2024-03-25T05:00:14;28.2;;;8.71;;
64018;SDS011;66942;52.138;5.216;2024-03-25T05:01:52;24.6;;;8.4;;
64018;SDS011;66942;52.138;5.216;2024-03-25T05:05:05;23.8;;;7.7;;
64018;SDS011;66942;52.138;5.216;2024-03-25T05:06:42;26.3;;;7.9;;
64018;SDS011;66942;52.138;5.216;2024-03-25T05:08:18;19.11;;;7.3;;
64018;SDS011;66942;52.138;5.216;2024-03-25T05:09:54;29.5;;;9.4;;
64018;SDS011;66942;52.138;5.216;2024-03-25T05:13:06;27.9;;;8.5;;
64018;SDS011;66942;52.138;5.216;2024-03-25T05:14:42;20.9;;;7.9;;
64018;SDS011;66942;52.138;5.216;2024-03-25T05:16:19;22.5;;;7.7;;
64018;SDS011;66942;52.138;5.216;2024-03-25T05:19:31;24.4;;;7.9;;
64018;SDS011;66942;52.138;5.216;2024-03-25T05:21:07;27.1;;;8.5;;
64018;SDS011;66942;52.138;5.216;2024-03-25T05:22:43;25.2;;;7.6;;
64018;SDS011;66942;52.138;5.216;2024-03-25T05:25:56;28.2;;;7.8;;
64018;SDS011;66942;52.138;5.216;2024-03-25T05:27:32;23.4;;;7.5;;
64018;SDS011;66942;52.138;5.216;2024-03-25T05:29:08;20.11;;;7.4;;
64018;SDS011;66942;52.138;5.216;2024-03-25T05:30:45;21.3;;;7.6;;
64018;SDS011;66942;52.138;5.216;2024-03-25T05:33:59;19.41;;;7.4;;
64018;SDS011;66942;52.138;5.216;2024-03-25T05:35:35;23.1;;;8.31;;
64018;SDS011;66942;52.138;5.216;2024-03-25T05:37:12;24.3;;;9.0;;
64018;SDS011;66942;52.138;5.216;2024-03-25T05:40:25;22.7;;;7.7;;
64018;SDS011;66942;52.138;5.216;2024-03-25T05:42:03;27.2;;;7.8;;
64018;SDS011;66942;52.138;5.216;2024-03-25T05:43:40;23.7;;;7.6;;
64018;SDS011;66942;52.138;5.216;2024-03-25T05:46:53;23.2;;;8.1;;
64018;SDS011;66942;52.138;5.216;2024-03-25T05:48:30;22.8;;;7.8;;
64018;SDS011;66942;52.138;5.216;2024-03-25T05:50:07;21.3;;;8.5;;
64018;SDS011;66942;52.138;5.216;2024-03-25T05:51:44;29.9;;;8.81;;
64018;SDS011;66942;52.138;5.216;2024-03-25T05:54:58;23.9;;;8.5;;
64018;SDS011;66942;52.138;5.216;2024-03-25T05:56:34;26.3;;;8.6;;
64018;SDS011;66942;52.138;5.216;2024-03-25T05:58:11;29.1;;;8.71;;
64018;SDS011;66942;52.138;5.216;2024-03-25T06:01:24;30.6;;;8.71;;
64018;SDS011;66942;52.138;5.216;2024-03-25T06:03:01;25.8;;;8.81;;
64018;SDS011;66942;52.138;5.216;2024-03-25T06:04:38;25.8;;;8.81;;
64018;SDS011;66942;52.138;5.216;2024-03-25T06:07:51;28.5;;;8.9;;
64018;SDS011;66942;52.138;5.216;2024-03-25T06:09:27;26.4;;;9.31;;
64018;SDS011;66942;52.138;5.216;2024-03-25T06:11:04;21.8;;;8.81;;
64018;SDS011;66942;52.138;5.216;2024-03-25T06:12:41;26.5;;;9.4;;
64018;SDS011;66942;52.138;5.216;2024-03-25T06:15:55;27.9;;;9.1;;
64018;SDS011;66942;52.138;5.216;2024-03-25T06:17:32;26.0;;;8.9;;
64018;SDS011;66942;52.138;5.216;2024-03-25T06:19:09;27.5;;;9.5;;
64018;SDS011;66942;52.138;5.216;2024-03-25T06:22:23;25.0;;;9.1;;
64018;SDS011;66942;52.138;5.216;2024-03-25T06:24:00;27.3;;;9.71;;
64018;SDS011;66942;52.138;5.216;2024-03-25T06:25:38;30.8;;;10.1;;
64018;SDS011;66942;52.138;5.216;2024-03-25T06:27:15;25.4;;;10.4;;
64018;SDS011;66942;52.138;5.216;2024-03-25T06:30:28;24.7;;;9.9;;
64018;SDS011;66942;52.138;5.216;2024-03-25T06:32:05;22.3;;;10.5;;
64018;SDS011;66942;52.138;5.216;2024-03-25T06:33:42;24.0;;;10.7;;
64018;SDS011;66942;52.138;5.216;2024-03-25T06:36:56;30.8;;;11.4;;
64018;SDS011;66942;52.138;5.216;2024-03-25T06:38:32;31.2;;;12.1;;
64018;SDS011;66942;52.138;5.216;2024-03-25T06:40:09;23.4;;;11.9;;
64018;SDS011;66942;52.138;5.216;2024-03-25T06:43:24;21.3;;;10.9;;
64018;SDS011;66942;52.138;5.216;2024-03-25T06:45:01;32.5;;;14.0;;
64018;SDS011;66942;52.138;5.216;2024-03-25T06:46:38;17.91;;;10.4;;
64018;SDS011;66942;52.138;5.216;2024-03-25T06:48:16;26.7;;;12.2;;
64018;SDS011;66942;52.138;5.216;2024-03-25T06:51:29;28.4;;;13.4;;
64018;SDS011;66942;52.138;5.216;2024-03-25T06:53:06;18.41;;;9.5;;
64018;SDS011;66942;52.138;5.216;2024-03-25T06:54:43;10.9;;;7.8;;
64018;SDS011;66942;52.138;5.216;2024-03-25T06:57:57;26.2;;;11.0;;
64018;SDS011;66942;52.138;5.216;2024-03-25T06:59:34;15.4;;;9.31;;
64018;SDS011;66942;52.138;5.216;2024-03-25T07:01:12;147.0;;;30.8;;
64018;SDS011;66942;52.138;5.216;2024-03-25T07:02:49;49.1;;;17.41;;
64018;SDS011;66942;52.138;5.216;2024-03-25T07:06:03;23.2;;;13.1;;
64018;SDS011;66942;52.138;5.216;2024-03-25T07:07:40;26.0;;;14.2;;
64018;SDS011;66942;52.138;5.216;2024-03-25T07:09:17;23.4;;;14.0;;
64018;SDS011;66942;52.138;5.216;2024-03-25T07:12:35;25.3;;;13.4;;
64018;SDS011;66942;52.138;5.216;2024-03-25T07:14:11;22.9;;;11.3;;
64018;SDS011;66942;52.138;5.216;2024-03-25T07:15:48;15.3;;;8.6;;
64018;SDS011;66942;52.138;5.216;2024-03-25T07:19:01;14.9;;;8.0;;
64018;SDS011;66942;52.138;5.216;2024-03-25T07:20:37;16.7;;;9.4;;
64018;SDS011;66942;52.138;5.216;2024-03-25T07:22:15;19.5;;;10.6;;
64018;SDS011;66942;52.138;5.216;2024-03-25T07:23:52;20.3;;;9.6;;
64018;SDS011;66942;52.138;5.216;2024-03-25T07:27:06;20.11;;;8.81;;
64018;SDS011;66942;52.138;5.216;2024-03-25T07:28:42;18.2;;;10.1;;
64018;SDS011;66942;52.138;5.216;2024-03-25T07:30:19;33.1;;;11.1;;
64018;SDS011;66942;52.138;5.216;2024-03-25T07:33:34;26.0;;;11.1;;
64018;SDS011;66942;52.138;5.216;2024-03-25T07:35:11;29.4;;;10.21;;
64018;SDS011;66942;52.138;5.216;2024-03-25T07:36:48;20.0;;;8.9;;
64018;SDS011;66942;52.138;5.216;2024-03-25T07:38:24;28.7;;;9.81;;
64018;SDS011;66942;52.138;5.216;2024-03-25T07:41:37;22.5;;;9.21;;
64018;SDS011;66942;52.138;5.216;2024-03-25T07:43:14;18.0;;;9.31;;
64018;SDS011;66942;52.138;5.216;2024-03-25T07:44:51;21.7;;;8.5;;
64018;SDS011;66942;52.138;5.216;2024-03-25T07:48:05;19.11;;;8.6;;
64018;SDS011;66942;52.138;5.216;2024-03-25T07:49:42;21.0;;;8.31;;
64018;SDS011;66942;52.138;5.216;2024-03-25T07:51:19;23.8;;;8.6;;
64018;SDS011;66942;52.138;5.216;2024-03-25T07:54:32;19.61;;;7.5;;
64018;SDS011;66942;52.138;5.216;2024-03-25T07:56:09;19.2;;;7.4;;
64018;SDS011;66942;52.138;5.216;2024-03-25T07:57:46;21.4;;;7.8;;
64018;SDS011;66942;52.138;5.216;2024-03-25T07:59:22;24.0;;;8.4;;
64018;SDS011;66942;52.138;5.216;2024-03-25T08:02:36;20.3;;;8.0;;
64018;SDS011;66942;52.138;5.216;2024-03-25T08:04:12;22.7;;;8.71;;
64018;SDS011;66942;52.138;5.216;2024-03-25T08:05:49;20.3;;;7.7;;
64018;SDS011;66942;52.138;5.216;2024-03-25T08:09:04;24.7;;;7.5;;
64018;SDS011;66942;52.138;5.216;2024-03-25T08:10:41;23.4;;;8.1;;
64018;SDS011;66942;52.138;5.216;2024-03-25T08:12:18;23.4;;;7.7;;
64018;SDS011;66942;52.138;5.216;2024-03-25T08:15:31;19.3;;;8.2;;
64018;SDS011;66942;52.138;5.216;2024-03-25T08:17:08;28.7;;;8.81;;
64018;SDS011;66942;52.138;5.216;2024-03-25T08:18:45;20.5;;;8.81;;
64018;SDS011;66942;52.138;5.216;2024-03-25T08:20:22;19.8;;;7.0;;
64018;SDS011;66942;52.138;5.216;2024-03-25T08:23:35;22.7;;;8.31;;
64018;SDS011;66942;52.138;5.216;2024-03-25T08:25:12;19.8;;;7.2;;
64018;SDS011;66942;52.138;5.216;2024-03-25T08:26:49;17.0;;;6.9;;
64018;SDS011;66942;52.138;5.216;2024-03-25T08:30:04;21.1;;;7.2;;
64018;SDS011;66942;52.138;5.216;2024-03-25T08:31:41;19.91;;;7.5;;
64018;SDS011;66942;52.138;5.216;2024-03-25T08:33:18;17.2;;;7.6;;
64018;SDS011;66942;52.138;5.216;2024-03-25T08:34:55;18.0;;;7.3;;
64018;SDS011;66942;52.138;5.216;2024-03-25T08:38:09;16.9;;;6.5;;
64018;SDS011;66942;52.138;5.216;2024-03-25T08:39:46;15.4;;;6.3;;
64018;SDS011;66942;52.138;5.216;2024-03-25T08:41:23;21.5;;;7.3;;
64018;SDS011;66942;52.138;5.216;2024-03-25T08:44:37;16.61;;;6.0;;
64018;SDS011;66942;52.138;5.216;2024-03-25T08:46:14;17.91;;;6.7;;
64018;SDS011;66942;52.138;5.216;2024-03-25T08:47:51;13.8;;;5.7;;
64018;SDS011;66942;52.138;5.216;2024-03-25T08:51:05;18.7;;;6.5;;
64018;SDS011;66942;52.138;5.216;2024-03-25T08:52:42;18.3;;;5.6;;
64018;SDS011;66942;52.138;5.216;2024-03-25T08:54:19;18.5;;;6.6;;
64018;SDS011;66942;52.138;5.216;2024-03-25T08:55:56;15.5;;;6.0;;
64018;SDS011;66942;52.138;5.216;2024-03-25T08:59:10;15.6;;;6.5;;
64018;SDS011;66942;52.138;5.216;2024-03-25T09:00:48;19.8;;;7.5;;
64018;SDS011;66942;52.138;5.216;2024-03-25T09:02:25;16.5;;;6.4;;
64018;SDS011;66942;52.138;5.216;2024-03-25T09:05:39;15.7;;;6.5;;
64018;SDS011;66942;52.138;5.216;2024-03-25T09:07:16;22.6;;;6.6;;
64018;SDS011;66942;52.138;5.216;2024-03-25T09:08:53;19.11;;;6.2;;
64018;SDS011;66942;52.138;5.216;2024-03-25T09:10:30;22.4;;;6.4;;
64018;SDS011;66942;52.138;5.216;2024-03-25T09:13:43;18.11;;;6.1;;
64018;SDS011;66942;52.138;5.216;2024-03-25T09:15:20;18.11;;;6.1;;
64018;SDS011;66942;52.138;5.216;2024-03-25T09:16:57;18.7;;;6.4;;
64018;SDS011;66942;52.138;5.216;2024-03-25T09:20:12;15.1;;;5.9;;
64018;SDS011;66942;52.138;5.216;2024-03-25T09:21:49;18.3;;;6.0;;
64018;SDS011;66942;52.138;5.216;2024-03-25T09:23:25;18.2;;;6.1;;
64018;SDS011;66942;52.138;5.216;2024-03-25T09:26:39;16.4;;;6.4;;
64018;SDS011;66942;52.138;5.216;2024-03-25T09:28:17;18.7;;;6.5;;
64018;SDS011;66942;52.138;5.216;2024-03-25T09:29:54;19.41;;;6.3;;
64018;SDS011;66942;52.138;5.216;2024-03-25T09:31:31;16.3;;;5.8;;
64018;SDS011;66942;52.138;5.216;2024-03-25T09:34:44;17.5;;;5.8;;
64018;SDS011;66942;52.138;5.216;2024-03-25T09:36:21;20.11;;;6.0;;
64018;SDS011;66942;52.138;5.216;2024-03-25T09:38:01;15.6;;;6.2;;
64018;SDS011;66942;52.138;5.216;2024-03-25T09:41:15;16.9;;;5.4;;
64018;SDS011;66942;52.138;5.216;2024-03-25T09:42:53;16.3;;;5.4;;
64018;SDS011;66942;52.138;5.216;2024-03-25T09:44:32;17.2;;;5.8;;
64018;SDS011;66942;52.138;5.216;2024-03-25T09:46:09;17.41;;;5.11;;
64018;SDS011;66942;52.138;5.216;2024-03-25T09:49:24;15.9;;;5.9;;
64018;SDS011;66942;52.138;5.216;2024-03-25T09:51:04;19.61;;;5.7;;
64018;SDS011;66942;52.138;5.216;2024-03-25T09:52:42;19.5;;;5.7;;
64018;SDS011;66942;52.138;5.216;2024-03-25T09:55:56;14.4;;;5.4;;
64018;SDS011;66942;52.138;5.216;2024-03-25T09:57:33;19.11;;;6.4;;
64018;SDS011;66942;52.138;5.216;2024-03-25T09:59:10;12.2;;;5.2;;
64018;SDS011;66942;52.138;5.216;2024-03-25T10:00:47;15.1;;;5.0;;
64018;SDS011;66942;52.138;5.216;2024-03-25T10:04:04;12.3;;;5.2;;
64018;SDS011;66942;52.138;5.216;2024-03-25T10:05:42;13.2;;;5.7;;
64018;SDS011;66942;52.138;5.216;2024-03-25T10:07:21;12.0;;;5.9;;
64018;SDS011;66942;52.138;5.216;2024-03-25T10:10:35;15.0;;;6.2;;
64018;SDS011;66942;52.138;5.216;2024-03-25T10:12:12;14.3;;;6.3;;
64018;SDS011;66942;52.138;5.216;2024-03-25T10:13:48;12.4;;;6.0;;
64018;SDS011;66942;52.138;5.216;2024-03-25T10:15:24;14.2;;;5.6;;
64018;SDS011;66942;52.138;5.216;2024-03-25T10:18:40;17.41;;;5.9;;
64018;SDS011;66942;52.138;5.216;2024-03-25T10:20:18;14.3;;;6.4;;
64018;SDS011;66942;52.138;5.216;2024-03-25T10:22:00;14.5;;;6.2;;
64018;SDS011;66942;52.138;5.216;2024-03-25T10:25:19;14.0;;;5.9;;
64018;SDS011;66942;52.138;5.216;2024-03-25T10:26:57;14.3;;;6.1;;
64018;SDS011;66942;52.138;5.216;2024-03-25T10:28:33;12.8;;;5.6;;
64018;SDS011;66942;52.138;5.216;2024-03-25T10:30:11;12.4;;;6.3;;
64018;SDS011;66942;52.138;5.216;2024-03-25T10:33:34;13.3;;;6.3;;
64018;SDS011;66942;52.138;5.216;2024-03-25T10:35:12;13.3;;;7.0;;
64018;SDS011;66942;52.138;5.216;2024-03-25T10:36:49;13.1;;;6.6;;
64018;SDS011;66942;52.138;5.216;2024-03-25T10:38:26;13.7;;;7.1;;
64018;SDS011;66942;52.138;5.216;2024-03-25T10:41:46;12.8;;;6.3;;
64018;SDS011;66942;52.138;5.216;2024-03-25T10:43:24;12.4;;;6.7;;
64018;SDS011;66942;52.138;5.216;2024-03-25T10:45:07;10.8;;;6.1;;
64018;SDS011;66942;52.138;5.216;2024-03-25T10:46:46;12.5;;;6.6;;
64018;SDS011;66942;52.138;5.216;2024-03-25T10:50:06;12.7;;;6.3;;
64018;SDS011;66942;52.138;5.216;2024-03-25T10:51:48;11.9;;;6.5;;
64018;SDS011;66942;52.138;5.216;2024-03-25T10:53:27;12.3;;;6.3;;
64018;SDS011;66942;52.138;5.216;2024-03-25T10:55:05;12.1;;;6.2;;
64018;SDS011;66942;52.138;5.216;2024-03-25T10:58:21;9.1;;;5.3;;
64018;SDS011;66942;52.138;5.216;2024-03-25T10:59:59;10.4;;;6.3;;
64018;SDS011;66942;52.138;5.216;2024-03-25T11:01:37;9.0;;;6.0;;
64018;SDS011;66942;52.138;5.216;2024-03-25T11:04:52;9.6;;;6.0;;
64018;SDS011;66942;52.138;5.216;2024-03-25T11:06:29;9.21;;;5.8;;
64018;SDS011;66942;52.138;5.216;2024-03-25T11:08:09;10.7;;;5.6;;
64018;SDS011;66942;52.138;5.216;2024-03-25T11:09:47;11.1;;;5.6;;
64018;SDS011;66942;52.138;5.216;2024-03-25T11:13:10;8.81;;;5.7;;
64018;SDS011;66942;52.138;5.216;2024-03-25T11:14:56;12.7;;;6.2;;
64018;SDS011;66942;52.138;5.216;2024-03-25T11:16:33;10.7;;;6.5;;
64018;SDS011;66942;52.138;5.216;2024-03-25T11:18:11;9.81;;;6.6;;
64018;SDS011;66942;52.138;5.216;2024-03-25T11:21:25;11.5;;;7.1;;
64018;SDS011;66942;52.138;5.216;2024-03-25T11:23:07;9.4;;;6.5;;
64018;SDS011;66942;52.138;5.216;2024-03-25T11:24:45;8.9;;;5.6;;
64018;SDS011;66942;52.138;5.216;2024-03-25T11:28:01;8.0;;;5.5;;
64018;SDS011;66942;52.138;5.216;2024-03-25T11:29:38;9.5;;;6.2;;
64018;SDS011;66942;52.138;5.216;2024-03-25T11:31:15;13.4;;;6.6;;
64018;SDS011;66942;52.138;5.216;2024-03-25T11:32:54;9.1;;;6.0;;
64018;SDS011;66942;52.138;5.216;2024-03-25T11:36:09;10.0;;;6.1;;
64018;SDS011;66942;52.138;5.216;2024-03-25T11:37:46;7.8;;;4.3;;
64018;SDS011;66942;52.138;5.216;2024-03-25T11:39:23;7.1;;;5.11;;
64018;SDS011;66942;52.138;5.216;2024-03-25T11:42:38;6.1;;;4.61;;
64018;SDS011;66942;52.138;5.216;2024-03-25T11:44:14;5.8;;;4.5;;
64018;SDS011;66942;52.138;5.216;2024-03-25T11:45:53;6.3;;;4.91;;
64018;SDS011;66942;52.138;5.216;2024-03-25T11:47:30;9.4;;;6.0;;
64018;SDS011;66942;52.138;5.216;2024-03-25T11:50:50;6.2;;;4.91;;
64018;SDS011;66942;52.138;5.216;2024-03-25T11:52:30;8.31;;;5.8;;
64018;SDS011;66942;52.138;5.216;2024-03-25T11:54:09;7.7;;;6.7;;
64018;SDS011;66942;52.138;5.216;2024-03-25T11:55:47;7.9;;;6.5;;
64018;SDS011;66942;52.138;5.216;2024-03-25T11:59:01;8.0;;;6.1;;
64018;SDS011;66942;52.138;5.216;2024-03-25T12:00:42;7.9;;;5.7;;
64018;SDS011;66942;52.138;5.216;2024-03-25T12:02:21;6.3;;;5.6;;
64018;SDS011;66942;52.138;5.216;2024-03-25T12:05:46;7.1;;;5.8;;
64018;SDS011;66942;52.138;5.216;2024-03-25T12:07:23;7.0;;;5.5;;
64018;SDS011;66942;52.138;5.216;2024-03-25T12:09:00;5.9;;;5.3;;
64018;SDS011;66942;52.138;5.216;2024-03-25T12:10:37;6.6;;;4.7;;
64018;SDS011;66942;52.138;5.216;2024-03-25T12:13:53;5.3;;;4.0;;
64018;SDS011;66942;52.138;5.216;2024-03-25T12:15:30;6.0;;;4.3;;
64018;SDS011;66942;52.138;5.216;2024-03-25T12:17:06;5.7;;;4.3;;
64018;SDS011;66942;52.138;5.216;2024-03-25T12:20:19;6.1;;;4.5;;
64018;SDS011;66942;52.138;5.216;2024-03-25T12:21:59;5.2;;;4.2;;
64018;SDS011;66942;52.138;5.216;2024-03-25T12:23:36;5.7;;;3.9;;
64018;SDS011;66942;52.138;5.216;2024-03-25T12:25:13;5.4;;;4.2;;
64018;SDS011;66942;52.138;5.216;2024-03-25T12:28:27;6.7;;;4.7;;
64018;SDS011;66942;52.138;5.216;2024-03-25T12:30:05;5.6;;;4.2;;
64018;SDS011;66942;52.138;5.216;2024-03-25T12:31:52;5.0;;;4.3;;
64018;SDS011;66942;52.138;5.216;2024-03-25T12:33:29;6.8;;;4.3;;
64018;SDS011;66942;52.138;5.216;2024-03-25T12:37:00;5.11;;;3.6;;
64018;SDS011;66942;52.138;5.216;2024-03-25T12:38:37;3.8;;;3.4;;
64018;SDS011;66942;52.138;5.216;2024-03-25T12:40:25;4.61;;;3.3;;
64018;SDS011;66942;52.138;5.216;2024-03-25T12:42:03;4.41;;;3.6;;
64018;SDS011;66942;52.138;5.216;2024-03-25T12:45:19;5.0;;;3.8;;